Time;durP1;ratioP1;P1;durP2;ratioP2;P2;SDS_P1;SDS_P2;PMS_P1;PMS_P2;Temp;Humidity;BMP_temperature;BMP_pressure;BME280_temperature;BME280_humidity;BME280_pressure;Samples;Min_cycle;Max_cycle;Signal;HPM_P1;HPM_P2
2023/11/13 00:02:14;;;;;;;42.45;19.77;;;5.00;99.90;;;;;;5029828;28;20049;-77
2023/11/13 00:04:40;;;;;;;43.22;20.35;;;5.00;99.90;;;;;;5030056;28;20443;-75
2023/11/13 00:07:06;;;;;;;44.45;19.13;;;4.90;99.90;;;;;;5030558;28;20054;-75
2023/11/13 00:09:32;;;;;;;42.25;19.70;;;4.80;99.90;;;;;;5029866;28;20034;-75
2023/11/13 00:11:58;;;;;;;39.58;20.02;;;4.80;99.90;;;;;;5029567;28;20051;-75
2023/11/13 00:14:23;;;;;;;40.42;19.55;;;4.70;99.90;;;;;;5029882;28;20025;-76
2023/11/13 00:16:49;;;;;;;41.22;19.83;;;4.70;99.90;;;;;;5031138;28;20061;-77
2023/11/13 00:19:16;;;;;;;40.58;19.35;;;4.60;99.90;;;;;;5030332;28;20025;-76
2023/11/13 00:21:43;;;;;;;41.42;19.10;;;4.60;99.90;;;;;;5033274;28;20065;-75
2023/11/13 00:24:09;;;;;;;44.10;19.23;;;4.50;99.90;;;;;;5029331;28;20022;-76
2023/11/13 00:26:36;;;;;;;38.35;19.10;;;4.50;99.90;;;;;;5030004;28;20022;-76
2023/11/13 00:29:02;;;;;;;42.72;18.15;;;4.50;99.90;;;;;;5028932;28;20029;-75
2023/11/13 00:31:28;;;;;;;43.65;19.77;;;4.50;99.90;;;;;;5030214;28;20021;-76
2023/11/13 00:33:53;;;;;;;38.88;18.92;;;4.40;99.90;;;;;;5031009;28;20121;-76
2023/11/13 00:36:19;;;;;;;41.55;19.02;;;4.40;99.90;;;;;;5033420;28;20025;-76
2023/11/13 00:38:45;;;;;;;39.00;18.75;;;4.50;99.90;;;;;;5033701;28;20124;-76
2023/11/13 00:41:12;;;;;;;39.40;18.88;;;4.40;99.90;;;;;;5033183;28;20045;-76
2023/11/13 00:43:38;;;;;;;39.53;18.83;;;4.40;99.90;;;;;;5032969;28;20026;-75
2023/11/13 00:46:04;;;;;;;40.95;18.95;;;4.40;99.90;;;;;;5033599;28;20028;-76
2023/11/13 00:48:30;;;;;;;40.40;19.35;;;4.40;99.90;;;;;;5033797;28;20049;-75
2023/11/13 00:50:56;;;;;;;41.10;19.00;;;4.40;99.90;;;;;;5033909;28;20334;-76
2023/11/13 00:53:21;;;;;;;41.97;19.70;;;4.40;99.90;;;;;;5031838;28;20049;-76
2023/11/13 00:55:47;;;;;;;48.28;19.77;;;4.40;99.90;;;;;;5033564;28;20134;-75
2023/11/13 00:58:13;;;;;;;41.55;20.38;;;4.40;99.90;;;;;;5038059;28;20041;-75
2023/11/13 01:00:38;;;;;;;39.83;19.65;;;4.40;99.90;;;;;;5032274;28;20029;-76
2023/11/13 01:03:04;;;;;;;46.88;20.35;;;4.40;99.90;;;;;;5032882;28;20041;-76
2023/11/13 01:05:30;;;;;;;44.42;21.17;;;4.40;99.90;;;;;;5032499;28;20065;-76
2023/11/13 01:07:56;;;;;;;48.10;20.70;;;4.40;99.90;;;;;;5033198;28;20032;-76
2023/11/13 01:10:21;;;;;;;41.88;20.20;;;4.40;99.90;;;;;;5032655;28;20100;-76
2023/11/13 01:12:47;;;;;;;49.50;23.75;;;4.40;99.90;;;;;;5033357;28;20368;-75
2023/11/13 01:15:12;;;;;;;46.55;21.98;;;4.40;99.90;;;;;;5033411;28;20058;-76
2023/11/13 01:17:38;;;;;;;48.53;21.38;;;4.40;99.90;;;;;;5033711;28;20024;-77
2023/11/13 01:20:06;;;;;;;46.00;20.95;;;4.40;99.90;;;;;;5033600;28;20025;-77
2023/11/13 01:22:32;;;;;;;51.42;22.13;;;4.40;99.90;;;;;;5033119;28;20108;-76
2023/11/13 01:24:57;;;;;;;52.80;23.45;;;4.40;99.90;;;;;;5033011;28;20041;-74
2023/11/13 01:27:23;;;;;;;54.97;24.17;;;4.40;99.90;;;;;;5032666;28;20022;-75
2023/11/13 01:29:49;;;;;;;50.75;23.25;;;4.50;99.90;;;;;;5032271;28;20116;-75
2023/11/13 01:32:16;;;;;;;55.95;24.50;;;4.50;99.90;;;;;;5032789;28;20018;-75
2023/11/13 01:34:42;;;;;;;53.40;24.30;;;4.50;99.90;;;;;;5033153;28;20097;-78
2023/11/13 01:37:09;;;;;;;55.97;22.58;;;4.50;99.90;;;;;;5039193;28;20021;-76
2023/11/13 01:39:35;;;;;;;53.78;22.40;;;4.50;99.90;;;;;;5031618;28;20030;-76
2023/11/13 01:42:01;;;;;;;64.72;25.90;;;4.50;99.90;;;;;;5032907;28;20467;-76
2023/11/13 01:44:26;;;;;;;90.88;24.42;;;4.50;99.90;;;;;;5030907;28;20041;-75
2023/11/13 01:46:53;;;;;;;54.92;24.45;;;4.50;99.90;;;;;;5032315;28;20385;-77
2023/11/13 01:49:22;;;;;;;62.22;24.20;;;4.50;99.90;;;;;;5032181;28;20125;-76
2023/11/13 01:51:48;;;;;;;54.42;24.60;;;4.50;99.90;;;;;;5032156;28;20025;-76
2023/11/13 01:54:16;;;;;;;56.60;25.05;;;4.50;99.90;;;;;;5032894;28;20025;-77
2023/11/13 01:56:43;;;;;;;56.70;24.15;;;4.40;99.90;;;;;;5032185;28;20078;-77
2023/11/13 01:59:12;;;;;;;100.60;25.15;;;4.40;99.90;;;;;;5032975;28;20025;-76
2023/11/13 02:01:40;;;;;;;74.43;22.42;;;4.40;99.90;;;;;;5032726;28;20137;-77
2023/11/13 02:04:06;;;;;;;128.05;23.65;;;4.40;99.90;;;;;;5039150;28;20018;-77
2023/11/13 02:06:32;;;;;;;90.55;22.95;;;4.40;99.90;;;;;;5032092;28;20113;-77
2023/11/13 02:08:57;;;;;;;72.95;22.70;;;4.40;99.90;;;;;;5032039;28;20026;-76
2023/11/13 02:11:25;;;;;;;62.42;21.58;;;4.30;99.90;;;;;;5032011;28;20053;-76
2023/11/13 02:13:52;;;;;;;117.63;22.13;;;4.30;99.90;;;;;;5047107;28;20445;-77
2023/11/13 02:16:18;;;;;;;94.40;23.42;;;4.30;99.90;;;;;;5031995;28;20048;-77
2023/11/13 02:18:44;;;;;;;88.45;21.95;;;4.30;99.90;;;;;;5032193;28;20026;-76
2023/11/13 02:21:11;;;;;;;105.80;21.42;;;4.30;99.90;;;;;;5031429;28;20030;-77
2023/11/13 02:23:37;;;;;;;43.28;20.38;;;4.30;99.90;;;;;;5031816;28;20017;-77
2023/11/13 02:26:29;;;;;;;60.33;20.42;;;4.30;99.90;;;;;;5032090;28;20128;-77
2023/11/13 02:28:55;;;;;;;141.55;20.80;;;4.20;99.90;;;;;;5032371;28;20061;-77
2023/11/13 02:31:20;;;;;;;141.77;20.65;;;4.20;99.90;;;;;;5031412;28;20025;-76
2023/11/13 02:33:46;;;;;;;116.03;20.92;;;4.20;99.90;;;;;;5031903;28;20100;-76
2023/11/13 02:36:12;;;;;;;106.65;21.95;;;4.20;99.90;;;;;;5031789;28;20029;-77
2023/11/13 02:38:37;;;;;;;38.60;19.00;;;4.20;99.90;;;;;;5031818;28;20394;-76
2023/11/13 02:41:03;;;;;;;59.63;18.25;;;4.20;99.90;;;;;;5031940;28;20034;-78
2023/11/13 02:43:29;;;;;;;41.72;19.17;;;4.10;99.90;;;;;;5031897;28;20044;-76
2023/11/13 02:45:54;;;;;;;40.30;18.30;;;4.10;99.90;;;;;;5031893;28;20030;-76
2023/11/13 02:48:20;;;;;;;39.85;18.77;;;4.00;99.90;;;;;;5030601;28;20029;-76
2023/11/13 02:50:46;;;;;;;46.40;18.55;;;4.00;99.90;;;;;;5031651;28;20029;-75
2023/11/13 02:53:13;;;;;;;43.63;19.55;;;4.00;99.90;;;;;;5037585;28;20516;-76
2023/11/13 02:55:38;;;;;;;63.20;19.90;;;4.00;99.90;;;;;;5031743;28;20026;-76
2023/11/13 02:58:04;;;;;;;56.90;19.90;;;4.00;99.90;;;;;;5030968;28;20068;-76
2023/11/13 03:00:30;;;;;;;91.15;20.98;;;3.90;99.90;;;;;;5031451;28;20525;-77
2023/11/13 03:02:56;;;;;;;134.13;20.83;;;3.90;99.90;;;;;;5031111;28;20052;-76
2023/11/13 03:05:22;;;;;;;117.38;20.80;;;4.00;99.90;;;;;;5031184;28;20017;-76
2023/11/13 03:07:48;;;;;;;49.90;18.75;;;4.00;99.90;;;;;;5031231;28;20478;-76
2023/11/13 03:10:13;;;;;;;101.10;18.88;;;4.00;99.90;;;;;;5031134;28;20018;-75
2023/11/13 03:12:40;;;;;;;120.80;20.40;;;4.00;99.90;;;;;;5030775;28;20113;-77
2023/11/13 03:15:09;;;;;;;63.78;20.38;;;4.00;99.90;;;;;;5029742;28;20136;-75
2023/11/13 03:17:34;;;;;;;41.85;19.55;;;4.00;99.90;;;;;;5031678;28;20030;-75
2023/11/13 03:20:02;;;;;;;42.05;19.67;;;4.00;99.90;;;;;;5030889;28;20041;-76
2023/11/13 03:22:28;;;;;;;38.95;20.05;;;4.00;99.90;;;;;;5037600;28;20041;-77
2023/11/13 03:24:54;;;;;;;41.22;20.30;;;4.00;99.90;;;;;;5045630;28;20108;-75
2023/11/13 03:27:19;;;;;;;41.70;20.70;;;4.00;99.90;;;;;;5030915;28;20100;-75
2023/11/13 03:29:45;;;;;;;42.03;19.73;;;4.00;99.90;;;;;;5031230;28;20025;-76
2023/11/13 03:32:10;;;;;;;45.40;20.10;;;4.00;99.90;;;;;;5031442;28;20044;-76
2023/11/13 03:34:36;;;;;;;41.05;19.85;;;4.00;99.90;;;;;;5029970;28;20025;-76
2023/11/13 03:37:02;;;;;;;44.25;20.30;;;4.00;99.90;;;;;;5030823;28;20094;-75
2023/11/13 03:39:29;;;;;;;44.97;21.75;;;4.00;99.90;;;;;;5030754;28;20017;-76
2023/11/13 03:41:55;;;;;;;47.70;21.02;;;4.00;99.90;;;;;;5036716;28;20040;-77
2023/11/13 03:44:21;;;;;;;45.38;20.45;;;4.00;99.90;;;;;;5030875;28;20027;-77
2023/11/13 03:46:46;;;;;;;46.33;20.05;;;4.00;99.90;;;;;;5030276;28;20116;-77
2023/11/13 03:49:12;;;;;;;43.10;20.88;;;4.00;99.90;;;;;;5029608;28;20025;-77
2023/11/13 03:51:38;;;;;;;46.63;20.25;;;4.00;99.90;;;;;;5031183;28;20022;-76
2023/11/13 03:54:03;;;;;;;41.13;20.95;;;4.00;99.90;;;;;;5029937;28;20032;-76
2023/11/13 03:56:29;;;;;;;40.67;20.25;;;4.00;99.90;;;;;;5030610;28;20030;-77
2023/11/13 03:58:55;;;;;;;43.67;20.80;;;4.00;99.90;;;;;;5030797;28;20078;-76
2023/11/13 04:01:21;;;;;;;48.08;21.17;;;4.00;99.90;;;;;;5030010;28;20222;-77
2023/11/13 04:03:46;;;;;;;38.80;20.17;;;4.00;99.90;;;;;;5030269;28;20034;-77
2023/11/13 04:06:12;;;;;;;44.22;20.63;;;4.00;99.90;;;;;;5030648;28;20064;-77
2023/11/13 04:08:38;;;;;;;45.38;19.77;;;4.00;99.90;;;;;;5029850;28;20116;-77
2023/11/13 04:11:05;;;;;;;48.13;21.85;;;3.90;99.90;;;;;;5032044;28;20335;-76
2023/11/13 04:13:32;;;;;;;44.58;20.92;;;3.90;99.90;;;;;;5034738;28;20014;-76
2023/11/13 04:16:00;;;;;;;49.92;22.48;;;4.00;99.90;;;;;;5034161;28;20041;-76
2023/11/13 04:18:29;;;;;;;80.95;22.08;;;3.90;99.90;;;;;;5033998;28;20095;-75
2023/11/13 04:20:57;;;;;;;60.05;22.52;;;3.90;99.90;;;;;;5032716;28;20021;-76
2023/11/13 04:23:24;;;;;;;45.15;20.45;;;3.90;99.90;;;;;;5032591;28;20068;-77
2023/11/13 04:25:50;;;;;;;45.22;20.40;;;3.90;99.90;;;;;;5034443;28;20060;-77
2023/11/13 04:28:18;;;;;;;106.95;22.05;;;3.80;99.90;;;;;;5034428;28;20018;-77
2023/11/13 04:30:44;;;;;;;52.85;22.15;;;3.80;99.90;;;;;;5033964;28;20076;-76
2023/11/13 04:33:09;;;;;;;180.73;22.85;;;3.80;99.90;;;;;;5040940;28;20061;-76
2023/11/13 04:35:35;;;;;;;256.70;23.00;;;3.80;99.90;;;;;;5040116;28;20030;-75
2023/11/13 04:38:00;;;;;;;236.15;23.00;;;3.80;99.90;;;;;;5034979;28;20034;-77
2023/11/13 04:40:26;;;;;;;48.75;19.23;;;3.80;99.90;;;;;;5033781;28;20036;-78
2023/11/13 04:42:52;;;;;;;40.67;19.30;;;3.90;99.90;;;;;;5031955;28;20069;-79
2023/11/13 04:45:18;;;;;;;154.40;20.40;;;3.70;99.90;;;;;;5034162;28;21300;-78
2023/11/13 04:47:44;;;;;;;133.93;20.45;;;3.70;99.90;;;;;;5040538;28;20033;-77
2023/11/13 04:50:09;;;;;;;98.45;20.35;;;3.70;99.90;;;;;;5033832;28;20026;-77
2023/11/13 04:52:35;;;;;;;37.58;18.77;;;3.70;99.90;;;;;;5034151;28;20018;-77
2023/11/13 04:55:01;;;;;;;50.95;18.27;;;3.60;99.90;;;;;;5034419;28;20053;-77
2023/11/13 04:57:27;;;;;;;97.22;19.40;;;3.60;99.90;;;;;;5034008;28;20029;-78
2023/11/13 04:59:53;;;;;;;40.65;18.98;;;3.60;99.90;;;;;;5031874;28;20029;-78
2023/11/13 05:02:18;;;;;;;36.80;18.25;;;3.60;99.90;;;;;;5033442;28;20034;-78
2023/11/13 05:04:45;;;;;;;31.75;16.85;;;3.50;99.90;;;;;;5033463;28;20025;-78
2023/11/13 05:07:11;;;;;;;51.45;17.77;;;3.50;99.90;;;;;;5039815;28;20474;-77
2023/11/13 05:09:37;;;;;;;37.40;17.80;;;3.50;99.90;;;;;;5033889;28;20032;-78
2023/11/13 05:12:03;;;;;;;33.30;17.02;;;3.40;99.90;;;;;;5033480;28;20045;-78
2023/11/13 05:14:29;;;;;;;37.75;18.35;;;3.40;99.90;;;;;;5033504;28;20029;-78
2023/11/13 05:16:57;;;;;;;42.47;17.50;;;3.40;99.90;;;;;;5032576;28;20045;-78
2023/11/13 05:19:23;;;;;;;42.92;20.20;;;3.40;99.90;;;;;;5032456;28;20030;-78
2023/11/13 05:21:49;;;;;;;48.83;19.85;;;3.40;99.90;;;;;;5036748;28;20044;-78
2023/11/13 05:24:15;;;;;;;35.55;17.58;;;3.40;99.90;;;;;;5033618;28;20030;-78
2023/11/13 05:26:42;;;;;;;44.72;20.88;;;3.50;99.90;;;;;;5039823;28;20033;-79
2023/11/13 05:29:07;;;;;;;39.05;19.92;;;3.50;99.90;;;;;;5032565;28;20034;-78
2023/11/13 05:31:33;;;;;;;39.72;18.02;;;3.50;99.90;;;;;;5037620;28;20080;-78
2023/11/13 05:33:59;;;;;;;38.42;19.60;;;3.50;99.90;;;;;;5032392;28;20470;-78
2023/11/13 05:36:24;;;;;;;39.30;18.90;;;3.50;99.90;;;;;;5033166;28;20025;-78
2023/11/13 05:38:50;;;;;;;45.67;20.20;;;3.50;99.90;;;;;;5039247;28;20021;-78
2023/11/13 05:41:15;;;;;;;77.53;20.10;;;3.50;99.90;;;;;;5032536;28;20086;-76
2023/11/13 05:43:42;;;;;;;121.28;19.30;;;3.50;99.90;;;;;;5033239;28;20072;-76
2023/11/13 05:46:07;;;;;;;104.05;20.20;;;3.50;99.90;;;;;;5033091;28;20164;-78
2023/11/13 05:48:33;;;;;;;112.97;19.80;;;3.50;99.90;;;;;;5030376;28;20045;-77
2023/11/13 05:50:59;;;;;;;111.75;19.83;;;3.50;99.90;;;;;;5032406;28;20041;-77
2023/11/13 05:53:25;;;;;;;128.95;19.13;;;3.50;99.90;;;;;;5032318;28;20033;-76
2023/11/13 05:55:51;;;;;;;89.40;19.05;;;3.50;99.90;;;;;;5046277;28;20039;-77
2023/11/13 05:58:17;;;;;;;43.03;17.65;;;3.50;99.90;;;;;;5030350;28;20105;-78
2023/11/13 06:00:43;;;;;;;41.55;18.88;;;3.40;99.90;;;;;;5037662;28;20022;-78
2023/11/13 06:03:09;;;;;;;39.83;17.73;;;3.40;99.90;;;;;;5038017;28;20041;-78
2023/11/13 06:05:34;;;;;;;38.67;18.60;;;3.40;99.90;;;;;;5031891;28;20026;-79
2023/11/13 06:08:03;;;;;;;41.80;19.48;;;3.30;99.90;;;;;;5038601;28;20017;-77
2023/11/13 06:10:28;;;;;;;42.63;19.17;;;3.30;99.90;;;;;;5031779;28;20108;-78
2023/11/13 06:12:54;;;;;;;37.33;19.25;;;3.30;99.90;;;;;;5032400;28;20395;-77
2023/11/13 06:15:20;;;;;;;39.38;19.83;;;3.30;99.90;;;;;;5031796;28;20072;-77
2023/11/13 06:17:46;;;;;;;34.13;17.95;;;3.30;99.90;;;;;;5032285;28;20021;-77
2023/11/13 06:20:13;;;;;;;38.22;18.60;;;3.30;99.90;;;;;;5038328;28;20017;-77
2023/11/13 06:22:43;;;;;;;37.05;18.15;;;3.30;99.90;;;;;;5031554;28;20402;-75
2023/11/13 06:25:10;;;;;;;39.05;18.75;;;3.40;99.90;;;;;;5030939;28;20052;-77
2023/11/13 06:27:37;;;;;;;31.52;16.92;;;3.40;99.90;;;;;;5045534;28;20105;-78
2023/11/13 06:30:03;;;;;;;32.63;17.30;;;3.30;99.90;;;;;;5036623;28;20029;-76
2023/11/13 06:32:29;;;;;;;33.05;16.63;;;3.30;99.90;;;;;;5029093;28;20053;-77
2023/11/13 06:34:55;;;;;;;30.90;16.30;;;3.30;99.90;;;;;;5029227;28;20060;-75
2023/11/13 06:37:21;;;;;;;30.27;16.60;;;3.30;99.90;;;;;;5031856;28;20048;-75
2023/11/13 06:39:47;;;;;;;31.05;16.90;;;3.30;99.90;;;;;;5029837;28;20077;-75
2023/11/13 06:42:12;;;;;;;34.08;15.68;;;3.30;99.90;;;;;;5031193;28;20116;-76
2023/11/13 06:44:38;;;;;;;29.50;16.60;;;3.30;99.90;;;;;;5030137;28;20056;-76
2023/11/13 06:47:05;;;;;;;30.10;15.95;;;3.30;99.90;;;;;;5031379;28;20581;-76
2023/11/13 06:49:31;;;;;;;34.95;16.42;;;3.30;99.90;;;;;;5030800;28;20030;-77
2023/11/13 06:51:57;;;;;;;31.33;16.52;;;3.30;99.90;;;;;;5030883;28;21130;-76
2023/11/13 06:54:23;;;;;;;31.33;15.80;;;3.20;99.90;;;;;;5031539;28;20022;-76
2023/11/13 06:56:49;;;;;;;31.73;15.70;;;3.20;99.90;;;;;;5038604;28;20037;-76
2023/11/13 06:59:15;;;;;;;35.35;17.35;;;3.20;99.90;;;;;;5031768;28;20037;-76
2023/11/13 07:01:42;;;;;;;34.97;16.65;;;3.20;99.90;;;;;;5031174;28;20478;-76
2023/11/13 07:04:11;;;;;;;34.55;15.70;;;3.20;99.90;;;;;;5031440;28;20021;-76
2023/11/13 07:06:38;;;;;;;38.53;16.90;;;3.20;99.90;;;;;;5031184;28;20022;-76
2023/11/13 07:09:13;;;;;;;29.05;15.93;;;3.30;99.90;;;;;;5037755;28;20118;-74
2023/11/13 07:11:44;;;;;;;34.05;16.38;;;3.30;99.90;;;;;;5037444;28;20180;-76
2023/11/13 07:14:11;;;;;;;30.27;15.43;;;3.30;99.90;;;;;;5030844;28;20124;-75
2023/11/13 07:16:38;;;;;;;31.33;16.08;;;3.40;99.90;;;;;;5030913;28;20050;-76
2023/11/13 07:19:04;;;;;;;31.58;15.43;;;3.40;99.90;;;;;;5030440;28;20108;-74
2023/11/13 07:21:31;;;;;;;30.98;15.40;;;3.40;99.90;;;;;;5031078;28;20027;-75
2023/11/13 07:23:58;;;;;;;31.55;16.60;;;3.50;99.90;;;;;;5036296;28;20056;-75
2023/11/13 07:26:24;;;;;;;30.08;15.65;;;3.40;99.90;;;;;;5030941;28;20108;-74
2023/11/13 07:28:50;;;;;;;37.70;15.68;;;3.50;99.90;;;;;;5030400;28;20018;-75
2023/11/13 07:31:16;;;;;;;31.35;15.35;;;3.50;99.90;;;;;;5030411;28;20061;-75
2023/11/13 07:33:42;;;;;;;36.50;15.80;;;3.50;99.90;;;;;;5037047;28;20394;-75
2023/11/13 07:36:12;;;;;;;32.03;15.95;;;3.60;99.90;;;;;;5029151;28;20053;-76
2023/11/13 07:38:41;;;;;;;29.80;15.20;;;3.60;99.90;;;;;;5030504;28;20026;-75
2023/11/13 07:41:11;;;;;;;47.42;25.17;;;3.60;99.90;;;;;;5029561;28;20038;-76
2023/11/13 07:43:41;;;;;;;31.65;15.68;;;3.70;99.90;;;;;;5037392;28;20042;-77
2023/11/13 07:46:08;;;;;;;28.45;13.60;;;3.70;99.90;;;;;;5029970;28;20081;-75
2023/11/13 07:48:38;;;;;;;28.25;13.65;;;3.70;99.90;;;;;;5037619;28;20119;-75
2023/11/13 07:51:05;;;;;;;29.75;13.18;;;3.70;99.90;;;;;;5031099;28;20038;-76
2023/11/13 07:53:33;;;;;;;29.60;13.13;;;3.70;99.90;;;;;;5030349;28;20076;-75
2023/11/13 07:55:59;;;;;;;26.75;12.27;;;3.70;99.90;;;;;;5030399;28;20026;-73
2023/11/13 07:58:25;;;;;;;28.02;12.75;;;3.60;99.90;;;;;;5030382;28;20053;-74
2023/11/13 08:00:53;;;;;;;27.13;13.38;;;3.60;99.90;;;;;;5029847;28;20045;-74
2023/11/13 08:03:20;;;;;;;27.60;12.15;;;3.60;99.90;;;;;;5030615;28;20093;-74
2023/11/13 08:05:45;;;;;;;27.23;13.00;;;3.60;99.90;;;;;;5036485;28;20032;-74
2023/11/13 08:08:14;;;;;;;26.33;13.10;;;3.70;99.90;;;;;;5030154;28;20033;-75
2023/11/13 08:10:40;;;;;;;26.92;13.18;;;3.70;99.90;;;;;;5030162;28;20033;-76
2023/11/13 08:13:07;;;;;;;24.67;12.77;;;3.70;99.90;;;;;;5030449;28;20037;-74
2023/11/13 08:15:34;;;;;;;32.17;12.02;;;3.70;99.90;;;;;;5030112;28;20080;-74
2023/11/13 08:18:00;;;;;;;25.13;12.25;;;3.80;99.90;;;;;;5030141;28;20085;-75
2023/11/13 08:20:26;;;;;;;29.13;11.75;;;3.80;99.90;;;;;;5029928;28;20088;-74
2023/11/13 08:22:59;;;;;;;31.85;12.25;;;3.80;99.90;;;;;;5036990;28;20498;-75
2023/11/13 08:25:26;;;;;;;22.77;10.43;;;4.00;99.90;;;;;;5030995;28;20053;-75
2023/11/13 08:27:52;;;;;;;22.13;11.13;;;4.10;99.90;;;;;;5031757;28;20034;-74
2023/11/13 08:30:22;;;;;;;23.15;11.00;;;4.10;99.90;;;;;;5034718;28;20044;-75
2023/11/13 08:32:51;;;;;;;20.10;10.25;;;4.20;99.90;;;;;;5029762;28;20171;-76
2023/11/13 08:35:18;;;;;;;21.35;10.55;;;4.10;99.90;;;;;;5029526;28;20112;-76
2023/11/13 08:37:45;;;;;;;24.27;10.75;;;4.10;99.90;;;;;;5034471;28;20477;-76
2023/11/13 08:40:19;;;;;;;24.35;11.10;;;4.20;99.90;;;;;;5035882;28;20033;-75
2023/11/13 08:42:46;;;;;;;25.40;11.32;;;4.20;99.90;;;;;;5027781;28;20124;-74
2023/11/13 08:45:15;;;;;;;24.17;10.02;;;4.20;99.90;;;;;;5034765;28;20065;-74
2023/11/13 08:47:48;;;;;;;23.13;10.68;;;4.20;99.90;;;;;;5029955;28;20041;-76
2023/11/13 08:50:15;;;;;;;21.55;10.05;;;4.30;99.90;;;;;;5029797;28;20077;-77
2023/11/13 08:52:43;;;;;;;22.83;10.32;;;4.30;99.90;;;;;;5029692;28;20038;-76
2023/11/13 08:55:10;;;;;;;31.00;11.23;;;4.40;99.90;;;;;;5028127;28;20018;-75
2023/11/13 08:57:46;;;;;;;20.15;10.27;;;4.40;99.90;;;;;;5033651;28;20129;-75
2023/11/13 09:00:26;;;;;;;20.52;9.88;;;4.40;99.90;;;;;;5048605;28;20029;-76
2023/11/13 09:02:54;;;;;;;23.80;10.18;;;4.40;99.90;;;;;;5033209;28;20040;-75
2023/11/13 09:05:26;;;;;;;20.70;10.07;;;4.50;99.90;;;;;;5031348;28;20033;-76
2023/11/13 09:07:53;;;;;;;22.27;9.75;;;4.60;99.90;;;;;;5033688;28;20034;-75
2023/11/13 09:10:21;;;;;;;21.33;10.57;;;4.60;99.90;;;;;;5031429;28;20100;-76
2023/11/13 09:12:47;;;;;;;20.02;10.07;;;4.60;99.90;;;;;;5038768;28;20056;-76
2023/11/13 09:15:17;;;;;;;21.70;10.98;;;4.70;99.90;;;;;;5033243;28;20060;-76
2023/11/13 09:17:45;;;;;;;20.30;10.85;;;4.70;99.90;;;;;;5033440;28;20477;-74
2023/11/13 09:20:19;;;;;;;26.92;10.80;;;4.80;99.90;;;;;;5039947;28;20045;-76
2023/11/13 09:22:45;;;;;;;26.55;11.75;;;4.80;99.90;;;;;;5033417;28;20037;-75
2023/11/13 09:25:14;;;;;;;22.60;10.57;;;4.80;99.90;;;;;;5033433;28;20025;-74
2023/11/13 09:27:43;;;;;;;17.58;9.32;;;4.90;99.90;;;;;;5037345;28;20108;-77
2023/11/13 09:30:10;;;;;;;20.35;9.80;;;4.90;99.90;;;;;;5030517;28;20045;-75
2023/11/13 09:32:40;;;;;;;19.30;9.50;;;5.00;99.90;;;;;;5035293;28;20040;-75
2023/11/13 09:35:18;;;;;;;20.92;9.13;;;5.00;99.90;;;;;;5031377;28;20108;-74
2023/11/13 09:38:02;;;;;;;22.52;10.02;;;5.10;99.90;;;;;;5032944;28;20077;-76
2023/11/13 09:40:29;;;;;;;;;;;5.10;99.90;;;;;;5047657;28;20030;-76
2023/11/13 09:42:55;;;;;;;22.67;9.82;;;5.10;99.90;;;;;;5032824;28;19929;-77
2023/11/13 09:45:22;;;;;;;24.98;9.70;;;5.20;99.90;;;;;;5033569;28;20025;-76
2023/11/13 09:47:49;;;;;;;21.48;10.00;;;5.20;99.90;;;;;;5032863;28;20045;-75
2023/11/13 09:50:21;;;;;;;25.63;10.93;;;5.20;99.90;;;;;;5032379;28;20069;-74
2023/11/13 09:52:48;;;;;;;26.63;11.77;;;5.30;99.90;;;;;;5032606;28;20074;-75
2023/11/13 09:55:20;;;;;;;20.13;10.48;;;5.30;99.90;;;;;;5031726;28;20025;-74
2023/11/13 09:57:51;;;;;;;24.45;12.35;;;5.40;99.90;;;;;;5031183;28;20418;-74
2023/11/13 10:00:25;;;;;;;29.17;11.68;;;5.50;99.90;;;;;;5046639;28;20207;-74
2023/11/13 10:02:52;;;;;;;23.70;12.25;;;5.60;99.90;;;;;;5033033;28;20468;-73
2023/11/13 10:05:20;;;;;;;24.00;11.75;;;5.60;99.90;;;;;;5033773;28;20482;-77
2023/11/13 10:07:50;;;;;;;25.65;11.63;;;5.70;99.90;;;;;;5027210;28;20091;-75
2023/11/13 10:10:19;;;;;;;29.70;12.57;;;5.70;99.90;;;;;;5047238;28;20033;-76
2023/11/13 10:12:46;;;;;;;25.60;12.55;;;5.70;99.90;;;;;;5032426;28;20124;-76
2023/11/13 10:15:15;;;;;;;25.85;13.00;;;5.80;99.90;;;;;;5032254;28;20125;-76
2023/11/13 10:17:42;;;;;;;36.40;12.85;;;5.80;99.90;;;;;;5032010;28;20042;-75
2023/11/13 10:20:10;;;;;;;26.67;12.00;;;5.90;99.90;;;;;;5032399;28;20034;-75
2023/11/13 10:22:37;;;;;;;38.28;14.77;;;5.90;99.90;;;;;;5032388;28;20040;-75
2023/11/13 10:25:09;;;;;;;29.58;13.63;;;5.90;99.90;;;;;;5031688;28;20033;-74
2023/11/13 10:27:35;;;;;;;32.75;15.73;;;6.00;99.90;;;;;;5026821;28;20093;-76
2023/11/13 10:30:04;;;;;;;35.85;15.05;;;6.00;99.90;;;;;;5024471;28;20060;-73
2023/11/13 10:32:31;;;;;;;28.08;13.13;;;6.00;99.90;;;;;;5029531;28;20060;-75
2023/11/13 10:34:57;;;;;;;35.60;13.90;;;6.00;99.90;;;;;;5030847;28;20060;-75
2023/11/13 10:37:24;;;;;;;31.02;15.73;;;6.00;99.90;;;;;;5046788;28;20021;-75
2023/11/13 10:39:51;;;;;;;39.33;16.42;;;6.00;99.90;;;;;;5028952;28;20170;-74
2023/11/13 10:42:22;;;;;;;31.13;14.63;;;6.10;99.90;;;;;;5030855;28;20034;-76
2023/11/13 10:45:06;;;;;;;40.53;16.92;;;6.00;99.90;;;;;;5028466;28;20498;-76
2023/11/13 10:47:33;;;;;;;37.10;16.58;;;6.10;99.90;;;;;;5031789;28;20025;-73
2023/11/13 10:50:00;;;;;;;39.92;16.20;;;6.20;99.90;;;;;;5030406;28;20071;-74
2023/11/13 10:52:28;;;;;;;31.08;16.20;;;6.20;99.90;;;;;;5036935;28;20041;-73
2023/11/13 10:55:00;;;;;;;36.58;16.90;;;6.20;99.90;;;;;;5046066;28;20332;-75
2023/11/13 10:57:26;;;;;;;34.88;14.48;;;6.20;99.90;;;;;;5031573;28;20439;-71
2023/11/13 10:59:53;;;;;;;34.67;15.52;;;6.20;99.90;;;;;;5028250;28;20144;-75
2023/11/13 11:02:48;;;;;;;39.20;15.57;;;6.20;99.90;;;;;;5030682;28;20029;-73
2023/11/13 11:05:22;;;;;;;32.50;15.88;;;6.20;99.90;;;;;;5036624;28;20037;-74
2023/11/13 11:07:55;;;;;;;37.55;15.25;;;6.20;99.90;;;;;;5030876;28;20026;-74
2023/11/13 11:10:26;;;;;;;31.77;14.53;;;6.20;99.90;;;;;;5031132;28;20029;-74
2023/11/13 11:12:59;;;;;;;36.10;16.20;;;6.20;99.90;;;;;;5031355;28;20033;-75
2023/11/13 11:15:46;;;;;;;37.87;14.57;;;6.20;99.90;;;;;;5030607;28;20056;-73
2023/11/13 11:18:42;;;;;;;37.13;15.65;;;6.20;99.90;;;;;;5036790;28;20296;-74
2023/11/13 11:21:07;;;;;;;31.83;14.38;;;6.20;99.90;;;;;;5030030;28;20026;-73
2023/11/13 11:23:47;;;;;;;36.72;16.35;;;6.10;99.90;;;;;;5031083;28;20524;-74
2023/11/13 11:26:12;;;;;;;40.17;17.95;;;6.20;99.90;;;;;;5031090;28;20056;-76
2023/11/13 11:28:38;;;;;;;42.03;17.52;;;6.20;99.90;;;;;;5029309;28;20149;-73
2023/11/13 11:31:38;;;;;;;40.40;16.92;;;6.20;99.90;;;;;;5030492;28;20470;-75
2023/11/13 11:34:07;;;;;;;45.53;17.92;;;6.20;99.90;;;;;;5030968;28;20025;-74
2023/11/13 11:36:44;;;;;;;47.17;16.83;;;6.20;99.90;;;;;;5029719;28;20029;-73
2023/11/13 11:39:24;;;;;;;45.53;18.92;;;6.10;99.90;;;;;;5031248;28;20026;-73
2023/11/13 11:41:54;;;;;;;45.65;18.65;;;6.10;99.90;;;;;;5028834;28;20029;-73
2023/11/13 11:44:44;;;;;;;42.90;16.13;;;6.10;99.90;;;;;;5028047;28;20032;-73
2023/11/13 11:47:23;;;;;;;46.60;19.13;;;6.10;99.90;;;;;;5045389;28;20037;-73
2023/11/13 11:49:50;;;;;;;50.72;18.58;;;6.10;99.90;;;;;;5030144;28;20049;-75
2023/11/13 11:52:16;;;;;;;43.90;18.70;;;6.10;99.90;;;;;;5028973;28;20053;-73
2023/11/13 11:54:42;;;;;;;44.50;18.08;;;6.10;99.90;;;;;;5029434;28;20033;-72
2023/11/13 11:57:10;;;;;;;49.47;18.23;;;6.10;99.90;;;;;;5035370;28;20026;-73
2023/11/13 11:59:36;;;;;;;57.47;19.58;;;6.10;99.90;;;;;;5045082;28;20596;-74
2023/11/13 12:02:03;;;;;;;50.20;18.23;;;6.10;99.90;;;;;;5029539;28;20109;-74
2023/11/13 12:04:30;;;;;;;48.97;20.15;;;6.10;99.90;;;;;;5036038;28;20022;-74
2023/11/13 12:06:58;;;;;;;52.00;19.60;;;6.10;99.90;;;;;;5030322;28;20053;-73
2023/11/13 12:09:23;;;;;;;50.53;19.58;;;6.10;99.90;;;;;;5029405;28;20026;-71
2023/11/13 12:11:50;;;;;;;52.03;20.05;;;6.10;99.90;;;;;;5029224;28;20029;-73
2023/11/13 12:14:19;;;;;;;42.95;17.50;;;6.10;99.90;;;;;;5029787;28;20021;-72
2023/11/13 12:16:48;;;;;;;49.35;20.30;;;6.10;99.90;;;;;;5028010;28;20060;-75
2023/11/13 12:19:15;;;;;;;52.47;19.13;;;6.10;99.90;;;;;;5030158;28;20032;-72
2023/11/13 12:21:45;;;;;;;54.05;21.58;;;6.10;99.90;;;;;;5030201;28;20405;-74
2023/11/13 12:24:15;;;;;;;49.10;20.63;;;6.10;99.90;;;;;;5030207;28;20022;-72
2023/11/13 12:26:44;;;;;;;53.42;20.98;;;6.10;99.90;;;;;;5030107;28;20025;-72
2023/11/13 12:29:19;;;;;;;56.13;20.75;;;6.10;99.90;;;;;;5028960;28;20018;-74
2023/11/13 12:31:47;;;;;;;52.40;19.63;;;6.20;99.90;;;;;;5031749;28;20108;-75
2023/11/13 12:34:16;;;;;;;55.85;20.95;;;6.20;99.90;;;;;;5033689;28;20018;-72
2023/11/13 12:36:47;;;;;;;55.13;21.77;;;6.20;99.90;;;;;;5033954;28;20040;-73
2023/11/13 12:39:16;;;;;;;43.20;16.70;;;6.20;99.90;;;;;;5047926;28;20033;-76